Time;durP1;ratioP1;P1;durP2;ratioP2;P2;SDS_P1;SDS_P2;PMS_P1;PMS_P2;Temp;Humidity;BMP_temperature;BMP_pressure;BME280_temperature;BME280_humidity;BME280_pressure;Samples;Min_cycle;Max_cycle;Signal;HPM_P1;HPM_P2
2021/08/14 00:01:12;;;;;;;;;;;25.90;74.10;;;;;;5215076;28;19935;-62
2021/08/14 00:03:44;;;;;;;;;;;26.00;74.30;;;;;;5232178;28;19924;-63
2021/08/14 00:06:17;;;;;;;;;;;25.90;74.10;;;;;;5235171;28;19936;-62
2021/08/14 00:08:49;;;;;;;;;;;25.90;74.20;;;;;;5239244;28;19956;-64
2021/08/14 00:11:21;;;;;;;;;;;25.90;74.20;;;;;;5233224;28;19951;-63
2021/08/14 00:13:53;;;;;;;;;;;25.90;74.30;;;;;;5235759;28;19925;-63
2021/08/14 00:16:26;;;;;;;;;;;25.90;74.30;;;;;;5237773;28;20576;-63
2021/08/14 00:18:59;;;;;;;;;;;25.90;74.30;;;;;;5234049;28;19931;-65
2021/08/14 00:21:31;;;;;;;;;;;25.90;74.30;;;;;;5204577;28;20304;-62
2021/08/14 00:24:04;;;;;;;;;;;25.90;74.40;;;;;;5233934;28;19928;-64
2021/08/14 00:26:36;;;;;;;;;;;25.80;74.30;;;;;;5239147;28;20307;-63
2021/08/14 00:29:08;;;;;;;;;;;25.90;74.30;;;;;;5215225;28;19928;-62
2021/08/14 00:31:43;;;;;;;;;;;25.80;74.30;;;;;;5228653;28;19999;-62
2021/08/14 00:34:16;;;;;;;;;;;25.80;74.30;;;;;;5232683;28;20465;-63
2021/08/14 00:36:49;;;;;;;;;;;25.90;74.40;;;;;;5228894;28;19924;-64
2021/08/14 00:39:21;;;;;;;;;;;25.80;74.40;;;;;;5231830;28;19936;-65
2021/08/14 00:41:53;;;;;;;;;;;25.80;74.50;;;;;;5232317;28;20388;-64
2021/08/14 00:44:26;;;;;;;;;;;25.80;74.50;;;;;;5231052;28;19928;-63
2021/08/14 00:46:58;;;;;;;;;;;25.80;74.40;;;;;;5218832;28;19924;-64
2021/08/14 00:49:31;;;;;;;;;;;25.80;74.50;;;;;;5236305;28;19924;-62
2021/08/14 00:52:03;;;;;;;;;;;25.80;74.50;;;;;;5233427;28;20398;-62
2021/08/14 00:54:36;;;;;;;;;;;25.80;74.60;;;;;;5216640;28;19924;-63
2021/08/14 00:57:08;;;;;;;;;;;25.80;74.60;;;;;;5237245;28;19933;-63
2021/08/14 00:59:41;;;;;;;;;;;25.80;74.60;;;;;;5232716;28;20339;-63
2021/08/14 01:02:14;;;;;;;;;;;25.80;74.70;;;;;;5233671;28;19929;-63
2021/08/14 01:04:47;;;;;;;;;;;25.80;74.80;;;;;;5233187;28;19940;-63
2021/08/14 01:07:19;;;;;;;;;;;25.80;74.80;;;;;;5231902;28;19939;-65
2021/08/14 01:09:51;;;;;;;;;;;25.80;74.70;;;;;;5231434;28;19924;-64
2021/08/14 01:12:24;;;;;;;;;;;25.80;74.70;;;;;;5233710;28;19940;-65
2021/08/14 01:14:56;;;;;;;;;;;25.80;74.70;;;;;;5226434;28;19936;-64
2021/08/14 01:17:28;;;;;;;;;;;25.70;74.60;;;;;;5216295;28;19935;-62
2021/08/14 01:20:00;;;;;;;;;;;25.80;74.70;;;;;;5235935;28;19928;-65
2021/08/14 01:22:36;;;;;;;;;;;25.80;74.70;;;;;;5236502;28;19928;-65
2021/08/14 01:25:08;;;;;;;;;;;25.80;74.70;;;;;;5228120;28;20336;-66
2021/08/14 01:27:41;;;;;;;;;;;25.70;74.60;;;;;;5218188;28;19932;-66
2021/08/14 01:30:14;;;;;;;;;;;25.70;74.70;;;;;;5238055;28;19924;-65
2021/08/14 01:32:46;;;;;;;;;;;25.80;74.70;;;;;;5237977;28;19931;-65
2021/08/14 01:35:19;;;;;;;;;;;25.70;74.70;;;;;;5239080;28;19924;-66
2021/08/14 01:37:52;;;;;;;;;;;25.70;74.70;;;;;;5223022;28;20389;-65
2021/08/14 01:40:24;;;;;;;;;;;25.70;74.70;;;;;;5227367;28;19928;-65
2021/08/14 01:42:56;;;;;;;;;;;25.70;74.70;;;;;;5238643;28;19924;-65
2021/08/14 01:45:28;;;;;;;;;;;25.70;74.70;;;;;;5228885;28;19928;-65
2021/08/14 01:48:00;;;;;;;;;;;25.70;74.80;;;;;;5246573;28;20312;-65
2021/08/14 01:50:33;;;;;;;;;;;25.70;74.90;;;;;;5240967;28;19947;-64
2021/08/14 01:53:05;;;;;;;;;;;25.70;74.90;;;;;;5247792;28;19924;-65
2021/08/14 01:55:37;;;;;;;;;;;25.70;74.90;;;;;;5232126;28;19990;-64
2021/08/14 01:58:10;;;;;;;;;;;25.70;74.90;;;;;;5245148;28;20149;-64
2021/08/14 02:00:42;;;;;;;;;;;25.70;74.90;;;;;;5238271;28;19932;-65
2021/08/14 02:03:14;;;;;;;;;;;25.70;74.90;;;;;;5236749;28;20317;-62
2021/08/14 02:05:46;;;;;;;;;;;25.70;74.90;;;;;;5243482;28;19936;-64
2021/08/14 02:08:18;;;;;;;;;;;25.70;75.00;;;;;;5244208;28;19925;-64
2021/08/14 02:10:51;;;;;;;;;;;25.70;75.00;;;;;;5244678;28;19932;-62
2021/08/14 02:13:23;;;;;;;;;;;25.70;75.00;;;;;;5239437;28;19940;-66
2021/08/14 02:15:55;;;;;;;;;;;25.70;75.10;;;;;;5234372;28;20349;-65
2021/08/14 02:18:27;;;;;;;;;;;25.70;75.00;;;;;;5221848;28;19933;-64
2021/08/14 02:21:00;;;;;;;;;;;25.70;75.00;;;;;;5257187;28;19928;-65
2021/08/14 02:23:32;;;;;;;;;;;25.70;75.10;;;;;;5239355;28;19940;-65
2021/08/14 02:26:05;;;;;;;;;;;25.70;75.00;;;;;;5235688;28;19932;-65
2021/08/14 02:28:37;;;;;;;;;;;25.60;75.00;;;;;;5238546;28;19936;-64
2021/08/14 02:31:09;;;;;;;;;;;25.60;75.00;;;;;;5238026;28;20296;-64
2021/08/14 02:33:41;;;;;;;;;;;25.70;75.10;;;;;;5237457;28;19955;-66
2021/08/14 02:36:14;;;;;;;;;;;25.60;75.00;;;;;;5237349;28;19933;-65
2021/08/14 02:38:46;;;;;;;;;;;25.70;75.00;;;;;;5234632;28;19931;-65
2021/08/14 02:41:18;;;;;;;;;;;25.70;75.10;;;;;;5236720;28;20690;-63
2021/08/14 02:43:50;;;;;;;;;;;25.60;75.10;;;;;;5227828;28;19932;-63
2021/08/14 02:46:23;;;;;;;;;;;25.60;75.10;;;;;;5234023;28;19932;-64
2021/08/14 02:48:55;;;;;;;;;;;25.60;75.10;;;;;;5236072;28;19928;-62
2021/08/14 02:51:28;;;;;;;;;;;25.60;75.10;;;;;;5235973;28;19935;-62
2021/08/14 02:54:00;;;;;;;;;;;25.70;75.20;;;;;;5235267;28;19961;-62
2021/08/14 02:56:32;;;;;;;;;;;25.60;75.20;;;;;;5231535;28;19928;-62
2021/08/14 02:59:04;;;;;;;;;;;25.60;75.10;;;;;;5211652;28;20265;-63
2021/08/14 03:01:37;;;;;;;;;;;25.60;75.10;;;;;;5233891;28;19956;-63
2021/08/14 03:04:09;;;;;;;;;;;25.60;75.20;;;;;;5231329;28;20331;-61
2021/08/14 03:06:41;;;;;;;;;;;25.60;75.20;;;;;;5211485;28;19951;-63
2021/08/14 03:09:14;;;;;;;;;;;25.60;75.10;;;;;;5231921;28;19925;-64
2021/08/14 03:11:46;;;;;;;;;;;25.60;75.20;;;;;;5230600;28;20423;-63
2021/08/14 03:14:18;;;;;;;;;;;25.60;75.20;;;;;;5209356;28;19929;-64
2021/08/14 03:16:50;;;;;;;;;;;25.60;75.20;;;;;;5223186;28;19924;-64
2021/08/14 03:19:22;;;;;;;;;;;25.60;75.10;;;;;;5229858;28;20423;-63
2021/08/14 03:21:54;;;;;;;;;;;25.60;75.10;;;;;;5226578;28;20304;-64
2021/08/14 03:24:27;;;;;;;;;;;25.60;75.10;;;;;;5231781;28;19943;-64
2021/08/14 03:26:59;;;;;;;;;;;25.60;75.10;;;;;;5245473;23;19935;-58
2021/08/14 03:29:32;;;;;;;;;;;25.60;75.20;;;;;;5237897;28;19939;-58
2021/08/14 03:32:04;;;;;;;;;;;25.60;75.10;;;;;;5223012;28;19936;-58
2021/08/14 03:34:36;;;;;;;;;;;25.60;75.20;;;;;;5243175;28;19933;-58
2021/08/14 03:37:08;;;;;;;;;;;25.60;75.20;;;;;;5255516;28;20380;-58
2021/08/14 03:39:41;;;;;;;;;;;25.60;75.00;;;;;;5260918;28;19932;-58
2021/08/14 03:42:13;;;;;;;;;;;25.60;75.10;;;;;;5259644;27;19928;-58
2021/08/14 03:44:45;;;;;;;;;;;25.60;75.20;;;;;;5265035;28;19931;-58
2021/08/14 03:47:17;;;;;;;;;;;25.60;75.10;;;;;;5260223;28;19924;-58
2021/08/14 03:49:49;;;;;;;;;;;25.60;75.00;;;;;;5262671;28;19932;-58
2021/08/14 03:52:23;;;;;;;;;;;25.60;75.20;;;;;;5240849;28;19928;-58
2021/08/14 03:54:55;;;;;;;;;;;25.60;75.00;;;;;;5270029;28;20344;-59
2021/08/14 03:57:28;;;;;;;;;;;25.60;75.00;;;;;;5265241;28;19934;-58
2021/08/14 04:00:01;;;;;;;;;;;25.60;75.00;;;;;;5267721;27;20143;-58
2021/08/14 04:02:35;;;;;;;;;;;25.60;75.00;;;;;;5263955;28;19931;-58
2021/08/14 04:05:08;;;;;;;;;;;25.60;75.20;;;;;;5264538;27;19932;-58
2021/08/14 04:07:40;;;;;;;;;;;25.60;75.00;;;;;;5257619;28;19935;-58
2021/08/14 04:10:13;;;;;;;;;;;25.50;74.90;;;;;;5263005;28;20373;-58
2021/08/14 04:12:50;;;;;;;;;;;25.50;74.80;;;;;;5266059;27;19924;-58
2021/08/14 04:15:29;;;;;;;;;;;25.50;74.80;;;;;;5245710;27;19928;-58
2021/08/14 04:18:02;;;;;;;;;;;25.50;74.90;;;;;;5262748;28;19935;-58
2021/08/14 04:20:35;;;;;;;;;;;25.50;74.80;;;;;;5265986;28;19928;-58
2021/08/14 04:23:07;;;;;;;;;;;25.50;74.80;;;;;;5265064;28;19928;-58
2021/08/14 04:25:39;;;;;;;;;;;25.50;74.90;;;;;;5263763;28;19924;-58
2021/08/14 04:28:11;;;;;;;;;;;25.50;74.90;;;;;;5264309;28;19932;-58
2021/08/14 04:30:44;;;;;;;;;;;25.50;74.90;;;;;;5265206;28;20556;-58
2021/08/14 04:33:16;;;;;;;;;;;25.50;74.90;;;;;;5255992;28;19931;-58
2021/08/14 04:35:49;;;;;;;;;;;25.50;74.90;;;;;;5269568;28;19924;-58
2021/08/14 04:38:21;;;;;;;;;;;25.50;74.90;;;;;;5267350;28;20307;-58
2021/08/14 04:40:53;;;;;;;;;;;25.50;74.90;;;;;;5269414;28;19934;-58
2021/08/14 04:43:26;;;;;;;;;;;25.50;74.90;;;;;;5268384;28;19924;-58
2021/08/14 04:45:58;;;;;;;;;;;25.50;74.90;;;;;;5245928;28;20280;-58
2021/08/14 04:48:30;;;;;;;;;;;25.50;74.80;;;;;;5267545;28;19931;-58
2021/08/14 04:51:02;;;;;;;;;;;25.50;74.80;;;;;;5269705;28;19928;-59
2021/08/14 04:53:34;;;;;;;;;;;25.50;74.90;;;;;;5266424;28;19928;-58
2021/08/14 04:56:07;;;;;;;;;;;25.50;74.90;;;;;;5267781;28;20361;-59
2021/08/14 04:58:39;;;;;;;;;;;25.50;74.90;;;;;;5272402;28;19928;-58
2021/08/14 05:01:11;;;;;;;;;;;25.50;74.90;;;;;;5267703;28;19924;-58
2021/08/14 05:03:43;;;;;;;;;;;25.50;74.90;;;;;;5272626;28;20376;-58
2021/08/14 05:06:16;;;;;;;;;;;25.50;74.90;;;;;;5270876;28;19927;-58
2021/08/14 05:08:48;;;;;;;;;;;25.50;74.90;;;;;;5270089;28;19928;-58
2021/08/14 05:11:20;;;;;;;;;;;25.50;74.90;;;;;;5269858;28;21204;-58
2021/08/14 05:13:52;;;;;;;;;;;25.50;75.00;;;;;;5270454;28;19928;-57
2021/08/14 05:16:25;;;;;;;;;;;25.40;74.90;;;;;;5267088;28;19927;-58
2021/08/14 05:18:57;;;;;;;;;;;25.50;75.00;;;;;;5267532;28;19936;-58
2021/08/14 05:21:30;;;;;;;;;;;25.40;75.00;;;;;;5265118;28;19932;-58
2021/08/14 05:24:03;;;;;;;;;;;25.50;75.10;;;;;;5265774;28;19927;-58
2021/08/14 05:26:35;;;;;;;;;;;25.40;75.10;;;;;;5269912;28;19928;-58
2021/08/14 05:29:08;;;;;;;;;;;25.50;75.10;;;;;;5245087;28;19932;-59
2021/08/14 05:31:40;;;;;;;;;;;25.40;75.10;;;;;;5269125;28;19942;-59
2021/08/14 05:34:12;;;;;;;;;;;25.40;75.20;;;;;;5264580;28;19927;-58
2021/08/14 05:36:45;;;;;;;;;;;25.40;75.20;;;;;;5263645;28;19935;-58
2021/08/14 05:39:17;;;;;;;;;;;25.40;75.20;;;;;;5264012;28;19939;-58
2021/08/14 05:41:52;;;;;;;;;;;25.40;75.20;;;;;;5266658;28;19927;-58
2021/08/14 05:44:24;;;;;;;;;;;25.50;75.30;;;;;;5250943;28;19924;-58
2021/08/14 05:46:56;;;;;;;;;;;25.40;75.30;;;;;;5263285;28;19931;-58
2021/08/14 05:49:29;;;;;;;;;;;25.40;75.30;;;;;;5250660;28;19927;-58
2021/08/14 05:52:04;;;;;;;;;;;25.50;75.50;;;;;;5264916;28;19950;-58
2021/08/14 05:54:36;;;;;;;;;;;25.40;75.30;;;;;;5265571;28;20762;-57
2021/08/14 05:57:09;;;;;;;;;;;25.40;75.30;;;;;;5265436;28;19935;-58
2021/08/14 05:59:41;;;;;;;;;;;25.40;75.30;;;;;;5268030;28;20312;-56
2021/08/14 06:02:13;;;;;;;;;;;25.40;75.40;;;;;;5263697;28;20479;-58
2021/08/14 06:04:45;;;;;;;;;;;25.40;75.40;;;;;;5262390;28;20003;-58
2021/08/14 06:07:17;;;;;;;;;;;25.40;75.40;;;;;;5262319;28;19950;-58
2021/08/14 06:09:50;;;;;;;;;;;25.40;75.50;;;;;;5264161;28;19935;-59
2021/08/14 06:12:22;;;;;;;;;;;25.40;75.50;;;;;;5263034;28;19924;-57
2021/08/14 06:14:54;;;;;;;;;;;25.50;75.60;;;;;;5263341;28;19924;-58
2021/08/14 06:17:27;;;;;;;;;;;25.50;75.60;;;;;;5259041;28;19928;-57
2021/08/14 06:19:59;;;;;;;;;;;25.40;75.60;;;;;;5263722;28;20805;-58
2021/08/14 06:22:31;;;;;;;;;;;25.40;75.50;;;;;;5266027;28;20410;-58
2021/08/14 06:25:03;;;;;;;;;;;25.40;75.50;;;;;;5267557;28;20315;-58
2021/08/14 06:27:36;;;;;;;;;;;25.40;75.50;;;;;;5265853;28;19927;-58
2021/08/14 06:30:08;;;;;;;;;;;25.40;75.50;;;;;;5262856;28;20228;-58
2021/08/14 06:32:41;;;;;;;;;;;25.40;75.40;;;;;;5265686;28;19925;-58
2021/08/14 06:35:13;;;;;;;;;;;25.40;76.10;;;;;;5256787;28;19924;-58
2021/08/14 06:37:45;;;;;;;;;;;25.40;75.50;;;;;;5254327;28;19923;-58
2021/08/14 06:40:18;;;;;;;;;;;25.40;75.40;;;;;;5266087;27;19947;-58
2021/08/14 06:42:50;;;;;;;;;;;25.40;75.40;;;;;;5268043;28;20388;-58
2021/08/14 06:45:22;;;;;;;;;;;25.40;75.50;;;;;;5267905;28;19943;-58
2021/08/14 06:47:55;;;;;;;;;;;25.40;75.50;;;;;;5262416;28;19924;-58
2021/08/14 06:50:27;;;;;;;;;;;25.40;75.50;;;;;;5254227;28;20411;-58
2021/08/14 06:52:59;;;;;;;;;;;25.40;75.50;;;;;;5270806;28;19935;-57
2021/08/14 06:55:31;;;;;;;;;;;25.40;75.50;;;;;;5267446;28;20364;-58
2021/08/14 06:58:04;;;;;;;;;;;25.40;75.40;;;;;;5268975;28;19932;-58
2021/08/14 07:00:36;;;;;;;;;;;25.40;75.50;;;;;;5269042;28;19935;-58
2021/08/14 07:03:09;;;;;;;;;;;25.40;75.50;;;;;;5261425;28;19937;-58
2021/08/14 07:05:41;;;;;;;;;;;25.40;75.60;;;;;;5266175;28;19928;-57
2021/08/14 07:08:13;;;;;;;;;;;25.40;75.70;;;;;;5266205;28;20380;-58
2021/08/14 07:10:46;;;;;;;;;;;25.40;75.70;;;;;;5269113;28;20289;-58
2021/08/14 07:13:18;;;;;;;;;;;25.40;75.70;;;;;;5263746;28;19928;-57
2021/08/14 07:15:50;;;;;;;;;;;25.40;75.60;;;;;;5268246;28;19923;-58
2021/08/14 07:18:22;;;;;;;;;;;25.40;75.60;;;;;;5263194;28;19939;-58
2021/08/14 07:20:55;;;;;;;;;;;25.40;75.70;;;;;;5267822;27;20584;-58
2021/08/14 07:23:28;;;;;;;;;;;25.40;75.50;;;;;;5264852;28;20395;-58
2021/08/14 07:26:00;;;;;;;;;;;25.40;75.50;;;;;;5261328;28;19931;-58
2021/08/14 07:28:32;;;;;;;;;;;25.40;75.60;;;;;;5239147;28;19924;-58
2021/08/14 07:31:05;;;;;;;;;;;25.40;75.60;;;;;;5259142;28;20352;-60
2021/08/14 07:33:37;;;;;;;;;;;25.40;75.60;;;;;;5264687;28;19928;-60
2021/08/14 07:36:09;;;;;;;;;;;25.40;75.60;;;;;;5265034;27;19931;-61
2021/08/14 07:38:41;;;;;;;;;;;25.40;75.60;;;;;;5264307;28;19932;-60
2021/08/14 07:41:14;;;;;;;;;;;25.40;75.60;;;;;;5266664;28;20415;-59
2021/08/14 07:43:46;;;;;;;;;;;25.40;75.60;;;;;;5255735;28;19931;-60
2021/08/14 07:46:18;;;;;;;;;;;25.40;75.50;;;;;;5249802;28;22441;-60
2021/08/14 07:48:50;;;;;;;;;;;25.40;75.60;;;;;;5254555;28;20396;-60
2021/08/14 07:51:23;;;;;;;;;;;25.40;76.00;;;;;;5252139;28;19932;-59
2021/08/14 07:53:55;;;;;;;;;;;25.40;75.70;;;;;;5247587;28;19924;-60
2021/08/14 07:56:27;;;;;;;;;;;25.40;76.00;;;;;;5235307;28;20342;-60
2021/08/14 07:58:59;;;;;;;;;;;25.40;75.60;;;;;;5230385;28;19934;-60
2021/08/14 08:01:32;;;;;;;;;;;25.40;75.60;;;;;;5243333;27;20209;-60
2021/08/14 08:04:04;;;;;;;;;;;25.40;75.60;;;;;;5240844;28;19932;-60
2021/08/14 08:06:36;;;;;;;;;;;25.50;75.60;;;;;;5244874;28;19932;-59
2021/08/14 08:09:08;;;;;;;;;;;25.40;75.60;;;;;;5250764;28;19932;-60
2021/08/14 08:11:40;;;;;;;;;;;25.50;75.50;;;;;;5250653;28;19939;-60
2021/08/14 08:14:13;;;;;;;;;;;25.40;75.50;;;;;;5243388;28;19932;-61
2021/08/14 08:16:45;;;;;;;;;;;25.50;76.10;;;;;;5233294;28;19931;-60
2021/08/14 08:19:18;;;;;;;;;;;25.40;76.50;;;;;;5239136;27;20580;-60
2021/08/14 08:21:50;;;;;;;;;;;25.50;76.40;;;;;;5241987;28;19939;-60
2021/08/14 08:24:22;;;;;;;;;;;25.50;76.10;;;;;;5238874;28;20791;-60
2021/08/14 08:26:54;;;;;;;;;;;25.60;76.00;;;;;;5244081;28;20392;-60
2021/08/14 08:29:28;;;;;;;;;;;25.60;75.90;;;;;;5237023;28;20471;-60
2021/08/14 08:32:04;;;;;;;;;;;25.70;75.70;;;;;;5237971;28;20431;-60
2021/08/14 08:34:40;;;;;;;;;;;25.70;75.50;;;;;;5237123;28;19935;-59
2021/08/14 08:37:16;;;;;;;;;;;25.80;75.30;;;;;;5239568;28;19927;-60
2021/08/14 08:39:54;;;;;;;;;;;25.80;75.10;;;;;;5236317;28;19927;-59
2021/08/14 08:42:29;;;;;;;;;;;25.90;75.00;;;;;;5242197;28;19946;-60
2021/08/14 08:45:02;;;;;;;;;;;25.90;74.70;;;;;;5238203;28;19932;-60
2021/08/14 08:47:37;;;;;;;;;;;26.00;74.50;;;;;;5225109;28;19932;-59
2021/08/14 08:50:10;;;;;;;;;;;26.00;74.30;;;;;;5240158;28;19954;-60
2021/08/14 08:52:43;;;;;;;;;;;26.00;74.10;;;;;;5241766;28;21213;-60
2021/08/14 08:55:15;;;;;;;;;;;26.10;73.90;;;;;;5237949;28;20431;-60
2021/08/14 08:57:48;;;;;;;;;;;26.10;73.80;;;;;;5239982;28;19939;-60
2021/08/14 09:00:20;;;;;;;;;;;26.10;73.60;;;;;;5239975;28;20418;-60
2021/08/14 09:03:13;;;;;;;;;;;26.20;73.60;;;;;;5237822;28;19942;-61
2021/08/14 09:05:52;;;;;;;;;;;26.20;73.50;;;;;;5240224;28;20319;-60
2021/08/14 09:08:25;;;;;;;;;;;26.20;73.40;;;;;;5236915;28;19928;-61
2021/08/14 09:11:13;;;;;;;;;;;26.20;73.20;;;;;;5237617;28;19935;-60
2021/08/14 09:14:15;;;;;;;;;;;26.20;73.30;;;;;;5242688;28;19928;-59
2021/08/14 09:17:06;;;;;;;;;;;26.30;73.50;;;;;;5220524;28;20630;-60
2021/08/14 09:19:38;;;;;;;;;;;26.40;73.20;;;;;;5243736;28;19932;-59
2021/08/14 09:22:13;;;;;;;;;;;26.40;73.20;;;;;;5245968;28;19932;-59
2021/08/14 09:24:46;;;;;;;;;;;26.50;73.10;;;;;;5232308;28;19928;-59
2021/08/14 09:27:18;;;;;;;;;;;26.60;72.70;;;;;;5240967;28;22463;-59
2021/08/14 09:29:53;;;;;;;;;;;26.60;72.50;;;;;;5248843;28;19928;-59
2021/08/14 09:32:26;;;;;;;;;;;26.70;72.20;;;;;;5237082;28;19935;-59
2021/08/14 09:34:58;;;;;;;;;;;26.70;72.00;;;;;;5236953;28;19931;-59
2021/08/14 09:37:38;;;;;;;;;;;26.80;72.00;;;;;;5241287;28;19958;-59
2021/08/14 09:40:10;;;;;;;;;;;26.80;72.00;;;;;;5236051;28;19932;-59
2021/08/14 09:42:49;;;;;;;;;;;26.80;72.00;;;;;;5237186;28;20351;-59
2021/08/14 09:45:22;;;;;;;;;;;26.80;71.80;;;;;;5238511;28;20537;-59
2021/08/14 09:47:55;;;;;;;;;;;26.80;71.70;;;;;;5234804;28;19946;-59
2021/08/14 09:50:34;;;;;;;;;;;26.80;71.70;;;;;;5238735;28;19928;-59
2021/08/14 09:53:13;;;;;;;;;;;26.80;71.70;;;;;;5238155;28;20169;-59
2021/08/14 09:55:53;;;;;;;;;;;26.80;71.60;;;;;;5247348;27;20428;-59
2021/08/14 09:58:25;;;;;;;;;;;26.80;71.40;;;;;;5239387;28;19928;-59
2021/08/14 10:01:01;;;;;;;;;;;26.90;70.90;;;;;;5235361;28;19932;-59
2021/08/14 10:03:34;;;;;;;;;;;26.90;70.80;;;;;;5242445;28;19935;-59
2021/08/14 10:06:09;;;;;;;;;;;26.90;70.80;;;;;;5234868;27;19935;-59
2021/08/14 10:08:41;;;;;;;;;;;26.90;70.70;;;;;;5234325;28;20547;-59
2021/08/14 10:11:14;;;;;;;;;;;26.90;70.60;;;;;;5227222;28;20270;-59
2021/08/14 10:13:46;;;;;;;;;;;26.80;70.70;;;;;;5248067;28;20318;-59
2021/08/14 10:16:19;;;;;;;;;;;26.90;71.00;;;;;;5249318;28;19932;-58
2021/08/14 10:18:55;;;;;;;;;;;26.90;71.40;;;;;;5243375;28;20127;-57
2021/08/14 10:21:27;;;;;;;;;;;26.90;71.10;;;;;;5230392;28;20376;-58
2021/08/14 10:24:00;;;;;;;;;;;26.90;71.00;;;;;;5256202;28;20487;-59
2021/08/14 10:26:32;;;;;;;;;;;26.90;71.00;;;;;;5254677;28;19939;-59
2021/08/14 10:29:04;;;;;;;;;;;27.00;71.00;;;;;;5233451;28;20411;-59
2021/08/14 10:31:36;;;;;;;;;;;27.00;70.80;;;;;;5251208;28;19939;-57
2021/08/14 10:34:12;;;;;;;;;;;27.10;70.80;;;;;;5255703;28;20223;-57
2021/08/14 10:36:44;;;;;;;;;;;27.10;70.50;;;;;;5236248;28;19939;-56
2021/08/14 10:39:24;;;;;;;;;;;27.20;70.40;;;;;;5251917;28;19932;-57
2021/08/14 10:41:58;;;;;;;;;;;27.20;70.20;;;;;;5253871;28;20320;-57
2021/08/14 10:44:41;;;;;;;;;;;27.30;70.00;;;;;;5262728;28;19924;-57
2021/08/14 10:47:31;;;;;;;;;;;27.30;69.90;;;;;;5266631;28;19924;-57
2021/08/14 10:50:03;;;;;;;;;;;27.40;69.70;;;;;;5263886;28;20323;-56
2021/08/14 10:52:37;;;;;;;;;;;27.50;69.50;;;;;;5244882;28;19928;-58
2021/08/14 10:55:10;;;;;;;;;;;27.50;69.50;;;;;;5261422;28;19928;-58
2021/08/14 10:57:44;;;;;;;;;;;27.40;69.60;;;;;;5264837;27;19923;-57
2021/08/14 11:00:23;;;;;;;;;;;27.40;69.70;;;;;;5260492;28;19928;-55
2021/08/14 11:03:00;;;;;;;;;;;27.30;69.70;;;;;;5252539;28;19924;-55
2021/08/14 11:05:33;;;;;;;;;;;27.30;69.70;;;;;;5255549;28;20332;-57
2021/08/14 11:08:24;;;;;;;;;;;27.20;69.80;;;;;;5243854;28;19943;-56
2021/08/14 11:10:57;;;;;;;;;;;27.20;69.90;;;;;;5267407;28;19932;-56
2021/08/14 11:13:29;;;;;;;;;;;27.10;69.80;;;;;;5260222;28;20412;-51
2021/08/14 11:16:01;;;;;;;;;;;27.10;70.10;;;;;;5261456;28;19931;-57
2021/08/14 11:18:52;;;;;;;;;;;27.10;70.30;;;;;;5259847;28;20278;-57
2021/08/14 11:21:39;;;;;;;;;;;27.00;70.40;;;;;;5263705;28;19932;-57
2021/08/14 11:24:30;;;;;;;;;;;27.00;70.60;;;;;;5268685;28;19928;-56
2021/08/14 11:27:15;;;;;;;;;;;26.90;70.80;;;;;;5268501;28;20684;-52
2021/08/14 11:29:51;;;;;;;;;;;26.90;70.90;;;;;;5271551;28;19928;-53
2021/08/14 11:32:24;;;;;;;;;;;26.90;71.10;;;;;;5269564;28;20327;-53
2021/08/14 11:34:57;;;;;;;;;;;26.90;71.20;;;;;;5266366;28;20423;-55
2021/08/14 11:37:30;;;;;;;;;;;26.80;71.30;;;;;;5267509;28;19931;-54
2021/08/14 11:40:04;;;;;;;;;;;26.80;71.40;;;;;;5269012;28;19935;-53
2021/08/14 11:42:37;;;;;;;;;;;26.80;71.50;;;;;;5261807;28;19939;-53
2021/08/14 11:45:11;;;;;;;;;;;26.80;71.60;;;;;;5258892;28;19928;-55
2021/08/14 11:47:43;;;;;;;;;;;26.80;71.70;;;;;;5259833;28;19927;-51
2021/08/14 11:50:15;;;;;;;;;;;26.70;71.70;;;;;;5261150;28;19928;-53
2021/08/14 11:52:47;;;;;;;;;;;26.70;71.60;;;;;;5267668;27;20368;-54
2021/08/14 11:55:20;;;;;;;;;;;26.70;71.60;;;;;;5266594;28;19954;-53
2021/08/14 11:57:52;;;;;;;;;;;26.70;71.70;;;;;;5271055;28;19924;-52
2021/08/14 12:00:25;;;;;;;;;;;26.70;71.70;;;;;;5269615;28;19928;-56
2021/08/14 12:03:11;;;;;;;;;;;26.70;71.80;;;;;;5269053;28;19932;-53
2021/08/14 12:05:44;;;;;;;;;;;26.60;71.70;;;;;;5241939;28;19932;-54
2021/08/14 12:08:33;;;;;;;;;;;26.60;71.70;;;;;;5264887;28;19932;-56
2021/08/14 12:11:07;;;;;;;;;;;26.60;71.70;;;;;;5260151;28;20422;-53
2021/08/14 12:13:39;;;;;;;;;;;26.60;71.70;;;;;;5261783;28;19928;-55
2021/08/14 12:16:15;;;;;;;;;;;26.60;71.80;;;;;;5262684;27;19924;-54
2021/08/14 12:18:49;;;;;;;;;;;26.60;71.80;;;;;;5260935;28;19932;-52
2021/08/14 12:21:25;;;;;;;;;;;26.50;71.80;;;;;;5255937;28;20277;-56
2021/08/14 12:24:04;;;;;;;;;;;26.50;71.80;;;;;;5264985;27;19931;-54
2021/08/14 12:26:36;;;;;;;;;;;26.60;72.00;;;;;;5257663;28;19924;-54
2021/08/14 12:29:10;;;;;;;;;;;26.50;71.90;;;;;;5255391;28;19923;-54
2021/08/14 12:31:44;;;;;;;;;;;26.60;72.00;;;;;;5257879;28;20197;-56
2021/08/14 12:34:24;;;;;;;;;;;26.50;71.80;;;;;;5233712;28;19938;-54
2021/08/14 12:37:04;;;;;;;;;;;26.60;71.80;;;;;;5249418;28;19935;-56
2021/08/14 12:39:56;;;;;;;;;;;26.60;71.70;;;;;;5256099;28;19954;-58
2021/08/14 12:42:29;;;;;;;;;;;26.60;72.00;;;;;;5247228;28;20182;-56
2021/08/14 12:45:16;;;;;;;;;;;26.70;71.90;;;;;;5228961;28;20179;-57
2021/08/14 12:47:49;;;;;;;;;;;26.80;71.90;;;;;;5259299;28;19932;-55
2021/08/14 12:50:31;;;;;;;;;;;26.80;71.50;;;;;;5258731;27;19939;-51
2021/08/14 12:53:05;;;;;;;;;;;26.90;71.30;;;;;;5253965;28;19923;-57
2021/08/14 12:55:47;;;;;;;;;;;26.90;71.10;;;;;;5254378;28;19939;-53
2021/08/14 12:58:20;;;;;;;;;;;26.90;71.00;;;;;;5248395;28;19928;-57
2021/08/14 13:00:53;;;;;;;;;;;27.00;71.60;;;;;;5263170;28;19923;-52
2021/08/14 13:03:26;;;;;;;;;;;26.90;70.80;;;;;;5262706;28;20391;-56
2021/08/14 13:05:58;;;;;;;;;;;26.90;70.90;;;;;;5252359;28;19955;-57
2021/08/14 13:08:31;;;;;;;;;;;26.90;71.00;;;;;;5252383;28;20336;-56
2021/08/14 13:11:03;;;;;;;;;;;26.90;71.10;;;;;;5245770;28;19943;-59
2021/08/14 13:13:35;;;;;;;;;;;26.90;71.10;;;;;;5245160;28;20442;-55
2021/08/14 13:16:07;;;;;;;;;;;26.90;71.80;;;;;;5229110;28;20099;-57
2021/08/14 13:18:39;;;;;;;;;;;26.80;71.20;;;;;;5236851;28;19943;-56
2021/08/14 13:21:12;;;;;;;;;;;26.80;71.30;;;;;;5246644;28;19938;-57
2021/08/14 13:23:44;;;;;;;;;;;26.80;71.30;;;;;;5248391;28;20028;-56
2021/08/14 13:26:16;;;;;;;;;;;26.80;71.20;;;;;;5257086;28;19932;-54
2021/08/14 13:28:48;;;;;;;;;;;26.80;71.30;;;;;;5253566;28;19935;-58
2021/08/14 13:31:20;;;;;;;;;;;26.80;71.40;;;;;;5254502;28;19931;-56
2021/08/14 13:33:54;;;;;;;;;;;26.90;71.50;;;;;;5242841;28;19955;-57
2021/08/14 13:36:26;;;;;;;;;;;26.80;71.40;;;;;;5235483;28;20827;-56
2021/08/14 13:38:58;;;;;;;;;;;26.90;71.50;;;;;;5252165;28;20569;-56
2021/08/14 13:41:30;;;;;;;;;;;26.80;71.50;;;;;;5245553;28;19928;-56
2021/08/14 13:44:04;;;;;;;;;;;26.90;71.60;;;;;;5249268;28;19923;-56
2021/08/14 13:46:36;;;;;;;;;;;26.90;71.50;;;;;;5247593;28;19935;-56
2021/08/14 13:49:08;;;;;;;;;;;26.90;71.50;;;;;;5244403;28;20324;-58
2021/08/14 13:51:41;;;;;;;;;;;26.90;71.50;;;;;;5244411;28;20395;-57
2021/08/14 13:54:16;;;;;;;;;;;26.90;71.50;;;;;;5235298;28;19928;-57
2021/08/14 13:56:48;;;;;;;;;;;26.90;71.50;;;;;;5249782;28;19924;-56
2021/08/14 13:59:21;;;;;;;;;;;26.90;71.50;;;;;;5255965;28;19928;-54
2021/08/14 14:01:53;;;;;;;;;;;26.90;71.50;;;;;;5252936;28;19928;-58
2021/08/14 14:04:25;;;;;;;;;;;26.90;71.50;;;;;;5254324;28;20308;-55
2021/08/14 14:06:58;;;;;;;;;;;27.00;71.50;;;;;;5240067;28;19942;-55
2021/08/14 14:09:30;;;;;;;;;;;27.00;71.40;;;;;;5253165;28;19932;-54
2021/08/14 14:12:02;;;;;;;;;;;26.90;71.20;;;;;;5253309;28;20380;-58
2021/08/14 14:14:35;;;;;;;;;;;27.00;70.60;;;;;;5253100;28;20307;-53
2021/08/14 14:17:07;;;;;;;;;;;27.00;70.60;;;;;;5242493;28;19935;-55
2021/08/14 14:19:39;;;;;;;;;;;27.00;70.60;;;;;;5240732;28;20415;-58
2021/08/14 14:22:11;;;;;;;;;;;27.00;70.60;;;;;;5254704;28;19933;-54
2021/08/14 14:24:44;;;;;;;;;;;27.00;70.80;;;;;;5260607;28;19935;-54
2021/08/14 14:27:16;;;;;;;;;;;27.00;70.90;;;;;;5247517;28;21698;-53
2021/08/14 14:29:48;;;;;;;;;;;27.00;70.90;;;;;;5247505;28;19932;-57
2021/08/14 14:32:20;;;;;;;;;;;27.00;70.90;;;;;;5248181;28;20392;-55
2021/08/14 14:34:52;;;;;;;;;;;27.10;71.70;;;;;;5238219;28;19939;-58
2021/08/14 14:37:25;;;;;;;;;;;27.10;71.00;;;;;;5246793;28;19931;-59
2021/08/14 14:39:57;;;;;;;;;;;27.10;70.90;;;;;;5244698;28;19932;-54
2021/08/14 14:42:29;;;;;;;;;;;27.10;70.60;;;;;;5241047;28;19953;-56
2021/08/14 14:45:01;;;;;;;;;;;27.10;70.90;;;;;;5248565;28;20800;-57
2021/08/14 14:47:34;;;;;;;;;;;27.10;70.90;;;;;;5246564;28;19932;-56
2021/08/14 14:50:06;;;;;;;;;;;27.10;70.00;;;;;;5249374;28;19931;-56
2021/08/14 14:52:39;;;;;;;;;;;27.10;70.50;;;;;;5257290;28;19928;-57